Time;durP1;ratioP1;P1;durP2;ratioP2;P2;SDS_P1;SDS_P2;PMS_P1;PMS_P2;Temp;Humidity;BMP_temperature;BMP_pressure;BME280_temperature;BME280_humidity;BME280_pressure;Samples;Min_cycle;Max_cycle;Signal;HPM_P1;HPM_P2
2021/04/04 00:02:24;;;;;;;18.23;12.50;;;3.50;61.10;;;;;;5081730;28;20586;-63
2021/04/04 00:04:50;;;;;;;14.63;10.60;;;3.50;61.30;;;;;;5086269;28;20063;-62
2021/04/04 00:07:16;;;;;;;11.50;7.68;;;3.40;61.40;;;;;;5086878;28;20055;-62
2021/04/04 00:09:42;;;;;;;11.82;6.60;;;3.30;61.50;;;;;;5078382;28;22450;-62
2021/04/04 00:12:09;;;;;;;7.50;4.97;;;3.30;61.60;;;;;;5070793;28;20041;-62
2021/04/04 00:14:38;;;;;;;8.65;4.28;;;3.30;61.80;;;;;;5076318;28;20047;-62
2021/04/04 00:17:04;;;;;;;7.15;3.72;;;3.20;61.90;;;;;;5083335;28;20024;-62
2021/04/04 00:19:30;;;;;;;8.35;4.00;;;3.10;62.00;;;;;;5080714;28;20077;-62
2021/04/04 00:22:02;;;;;;;7.50;3.78;;;3.10;62.10;;;;;;5081263;28;20036;-62
2021/04/04 00:24:33;;;;;;;5.32;3.28;;;3.10;62.40;;;;;;5081134;28;20539;-62
2021/04/04 00:27:01;;;;;;;6.82;3.58;;;3.10;62.20;;;;;;5083151;28;20119;-62
2021/04/04 00:29:27;;;;;;;7.38;4.05;;;3.10;62.30;;;;;;5080775;28;20036;-62
2021/04/04 00:31:52;;;;;;;8.73;3.40;;;3.10;62.30;;;;;;5079320;28;20413;-61
2021/04/04 00:34:21;;;;;;;6.47;3.40;;;3.00;62.30;;;;;;5084437;28;20055;-63
2021/04/04 00:36:49;;;;;;;8.75;3.85;;;3.00;62.30;;;;;;5082093;28;20115;-62
2021/04/04 00:39:17;;;;;;;8.85;4.00;;;3.00;62.60;;;;;;5086116;28;20032;-62
2021/04/04 00:41:46;;;;;;;6.82;3.97;;;2.90;62.50;;;;;;5099193;28;20395;-62
2021/04/04 00:44:11;;;;;;;11.02;4.57;;;2.90;62.60;;;;;;5086740;28;20032;-63
2021/04/04 00:46:41;;;;;;;9.68;4.20;;;2.90;62.60;;;;;;5086219;28;20090;-62
2021/04/04 00:49:12;;;;;;;7.45;3.60;;;2.90;62.80;;;;;;5087133;28;20029;-61
2021/04/04 00:51:37;;;;;;;10.73;3.65;;;2.80;62.90;;;;;;5080549;28;20024;-62
2021/04/04 00:54:11;;;;;;;8.77;3.90;;;2.90;62.80;;;;;;5085360;28;20036;-62
2021/04/04 00:56:42;;;;;;;7.80;3.80;;;2.90;63.20;;;;;;5082188;28;20032;-63
2021/04/04 00:59:12;;;;;;;11.32;4.40;;;2.90;63.10;;;;;;5085414;28;20426;-61
2021/04/04 01:01:42;;;;;;;9.25;4.00;;;2.90;63.00;;;;;;5077887;28;20063;-62
2021/04/04 01:04:08;;;;;;;9.43;3.60;;;2.90;62.80;;;;;;5086707;28;20040;-62
2021/04/04 01:06:38;;;;;;;11.15;4.70;;;2.90;62.80;;;;;;5085125;28;20057;-62
2021/04/04 01:09:07;;;;;;;9.80;4.53;;;2.90;62.80;;;;;;5083156;28;20466;-62
2021/04/04 01:12:18;;;;;;;11.43;5.18;;;2.90;62.80;;;;;;5077043;28;20033;-62
2021/04/04 01:15:17;;;;;;;10.00;4.93;;;2.90;63.90;;;;;;5080910;28;20040;-62
2021/04/04 01:17:48;;;;;;;13.73;5.10;;;2.90;63.70;;;;;;5082535;28;20127;-62
2021/04/04 01:20:21;;;;;;;15.20;5.43;;;2.80;62.90;;;;;;5081545;28;20040;-62
2021/04/04 01:23:03;;;;;;;9.90;5.32;;;2.90;63.00;;;;;;5081551;28;20093;-62
2021/04/04 01:25:46;;;;;;;12.05;5.43;;;2.80;63.50;;;;;;5082258;28;20036;-62
2021/04/04 01:28:19;;;;;;;10.82;4.97;;;2.80;63.40;;;;;;5079855;28;20020;-61
2021/04/04 01:30:50;;;;;;;9.60;5.53;;;2.80;62.90;;;;;;5083120;28;20120;-62
2021/04/04 01:33:23;;;;;;;9.40;4.75;;;2.90;63.00;;;;;;5081081;28;20028;-61
2021/04/04 01:35:53;;;;;;;9.90;4.40;;;2.80;62.80;;;;;;5085412;28;20035;-62
2021/04/04 01:38:26;;;;;;;11.38;5.50;;;2.80;62.70;;;;;;5083162;28;20044;-62
2021/04/04 01:41:05;;;;;;;11.38;4.43;;;2.80;62.90;;;;;;5083779;28;20442;-62
2021/04/04 01:43:34;;;;;;;10.48;4.65;;;2.90;63.10;;;;;;5083217;28;20044;-61
2021/04/04 01:46:07;;;;;;;8.82;5.20;;;2.90;62.70;;;;;;5078925;28;20041;-62
2021/04/04 01:48:40;;;;;;;8.77;4.60;;;2.90;62.80;;;;;;5085464;28;20036;-60
2021/04/04 01:51:08;;;;;;;9.95;5.35;;;2.90;62.60;;;;;;5084515;28;20478;-63
2021/04/04 01:53:41;;;;;;;9.52;5.13;;;2.90;62.50;;;;;;5084443;28;20040;-62
2021/04/04 01:56:07;;;;;;;8.68;5.45;;;2.80;62.50;;;;;;5082619;28;20036;-63
2021/04/04 01:58:39;;;;;;;10.20;5.40;;;2.80;62.60;;;;;;5084711;28;20025;-61
2021/04/04 02:01:10;;;;;;;13.50;5.03;;;2.80;62.60;;;;;;5081710;28;20025;-62
2021/04/04 02:03:36;;;;;;;9.18;4.82;;;2.70;63.60;;;;;;5098495;28;20409;-62
2021/04/04 02:06:05;;;;;;;7.97;4.78;;;2.70;62.80;;;;;;5083950;28;20032;-63
2021/04/04 02:08:36;;;;;;;8.95;4.70;;;2.70;62.80;;;;;;5083794;28;20489;-63
2021/04/04 02:11:05;;;;;;;9.40;4.63;;;2.70;62.70;;;;;;5078544;28;20119;-62
2021/04/04 02:13:36;;;;;;;7.78;4.63;;;2.70;62.80;;;;;;5086108;28;22317;-61
2021/04/04 02:16:08;;;;;;;9.60;4.57;;;2.70;63.00;;;;;;5085622;28;20032;-62
2021/04/04 02:18:37;;;;;;;8.80;5.00;;;2.60;62.80;;;;;;5082334;28;20036;-62
2021/04/04 02:21:03;;;;;;;9.15;5.05;;;2.60;63.00;;;;;;5103410;28;20028;-62
2021/04/04 02:23:34;;;;;;;8.57;4.88;;;2.60;63.00;;;;;;5088211;28;20032;-62
2021/04/04 02:26:07;;;;;;;11.18;4.70;;;2.60;63.20;;;;;;5087358;28;20037;-62
2021/04/04 02:28:35;;;;;;;8.95;4.90;;;2.50;63.30;;;;;;5086568;28;20024;-62
2021/04/04 02:31:10;;;;;;;8.02;4.55;;;2.40;63.30;;;;;;5086542;28;20024;-62
2021/04/04 02:33:47;;;;;;;10.65;4.60;;;2.40;63.80;;;;;;5087751;28;20029;-63
2021/04/04 02:36:20;;;;;;;8.15;4.43;;;2.40;64.00;;;;;;5083839;28;20033;-62
2021/04/04 02:38:54;;;;;;;7.03;4.20;;;2.30;63.80;;;;;;5086421;28;20483;-62
2021/04/04 02:41:22;;;;;;;6.28;4.05;;;2.30;63.90;;;;;;5087841;28;20964;-62
2021/04/04 02:43:52;;;;;;;9.27;4.40;;;2.30;63.90;;;;;;5089406;28;20123;-62
2021/04/04 02:46:22;;;;;;;7.13;4.25;;;2.20;63.90;;;;;;5083616;28;20500;-62
2021/04/04 02:49:02;;;;;;;7.43;3.97;;;2.20;64.00;;;;;;5087175;28;20028;-62
2021/04/04 02:51:51;;;;;;;8.98;4.20;;;2.20;64.70;;;;;;5086391;28;20059;-62
2021/04/04 02:54:23;;;;;;;10.93;4.85;;;2.10;65.20;;;;;;5081179;28;20032;-62
2021/04/04 02:56:50;;;;;;;8.77;4.03;;;2.10;64.60;;;;;;5084837;28;20054;-62
2021/04/04 02:59:50;;;;;;;12.13;4.70;;;2.10;64.60;;;;;;5089809;28;20743;-62
2021/04/04 03:02:20;;;;;;;7.43;4.22;;;2.00;65.40;;;;;;5094455;28;20077;-62
2021/04/04 03:04:51;;;;;;;8.43;4.38;;;2.00;64.50;;;;;;5087755;28;20679;-62
2021/04/04 03:07:25;;;;;;;8.32;4.07;;;2.00;64.50;;;;;;5086774;28;20090;-62
2021/04/04 03:09:53;;;;;;;7.53;4.07;;;2.00;64.60;;;;;;5083348;28;20040;-59
2021/04/04 03:12:25;;;;;;;11.05;4.43;;;2.00;64.40;;;;;;5084041;28;20068;-62
2021/04/04 03:14:57;;;;;;;8.10;4.32;;;2.10;64.60;;;;;;5088309;28;20036;-62
2021/04/04 03:17:29;;;;;;;7.93;3.88;;;2.10;65.40;;;;;;5084636;28;20035;-63
2021/04/04 03:19:58;;;;;;;8.52;4.25;;;2.10;64.40;;;;;;5082148;28;20032;-61
2021/04/04 03:22:29;;;;;;;5.40;3.70;;;2.10;64.20;;;;;;5086343;28;20036;-62
2021/04/04 03:24:58;;;;;;;7.25;4.35;;;2.10;64.20;;;;;;5085836;28;20028;-62
2021/04/04 03:27:32;;;;;;;8.82;3.92;;;2.10;64.10;;;;;;5083791;28;20111;-62
2021/04/04 03:30:02;;;;;;;7.25;4.10;;;2.10;64.20;;;;;;5083405;28;20044;-62
2021/04/04 03:32:31;;;;;;;15.73;5.40;;;2.10;64.00;;;;;;5081374;28;20067;-63
2021/04/04 03:35:03;;;;;;;14.15;6.18;;;2.10;64.10;;;;;;5085834;28;20036;-61
2021/04/04 03:37:34;;;;;;;14.15;6.30;;;2.20;64.00;;;;;;5085936;28;20032;-63
2021/04/04 03:40:05;;;;;;;15.63;6.63;;;2.10;64.00;;;;;;5087712;28;20043;-62
2021/04/04 03:42:36;;;;;;;17.05;6.10;;;2.10;64.00;;;;;;5074772;28;20025;-63
2021/04/04 03:45:05;;;;;;;16.17;6.30;;;2.10;64.00;;;;;;5086447;28;20036;-61
2021/04/04 03:47:31;;;;;;;8.82;5.32;;;2.00;64.20;;;;;;5084110;28;20028;-62
2021/04/04 03:50:02;;;;;;;10.50;4.43;;;1.90;64.20;;;;;;5083072;28;20119;-63
2021/04/04 03:52:28;;;;;;;11.65;4.60;;;1.90;64.40;;;;;;5085451;28;20047;-62
2021/04/04 03:54:58;;;;;;;6.80;3.60;;;1.90;64.20;;;;;;5083433;28;20040;-62
2021/04/04 03:57:31;;;;;;;6.95;4.20;;;1.90;64.50;;;;;;5085627;28;20073;-63
2021/04/04 03:59:57;;;;;;;7.50;4.38;;;1.90;64.40;;;;;;5083349;28;20099;-61
2021/04/04 04:02:29;;;;;;;7.97;4.50;;;2.00;64.30;;;;;;5083605;28;20468;-63
2021/04/04 04:05:04;;;;;;;9.38;4.18;;;1.90;64.10;;;;;;5079956;28;20119;-62
2021/04/04 04:07:33;;;;;;;9.20;4.32;;;1.90;64.20;;;;;;5087929;28;20039;-63
2021/04/04 04:10:05;;;;;;;5.88;3.97;;;1.90;64.20;;;;;;5082843;28;20085;-62
2021/04/04 04:12:37;;;;;;;6.75;4.10;;;1.90;64.00;;;;;;5081601;28;20037;-62
2021/04/04 04:15:07;;;;;;;7.13;4.03;;;2.00;64.00;;;;;;5084897;28;20488;-62
2021/04/04 04:17:36;;;;;;;17.70;5.97;;;1.90;63.80;;;;;;5080242;28;20032;-63
2021/04/04 04:20:09;;;;;;;29.88;10.60;;;1.90;63.90;;;;;;5084598;28;20038;-62
2021/04/04 04:22:43;;;;;;;45.63;13.20;;;1.90;63.90;;;;;;5084131;28;20107;-63
2021/04/04 04:25:13;;;;;;;40.28;12.00;;;1.80;64.00;;;;;;5082633;28;20036;-62
2021/04/04 04:27:47;;;;;;;33.38;11.10;;;1.70;63.90;;;;;;5085670;28;20113;-63
2021/04/04 04:30:21;;;;;;;28.75;8.88;;;1.80;65.00;;;;;;5086228;28;20032;-63
2021/04/04 04:32:56;;;;;;;53.17;14.20;;;1.70;64.20;;;;;;5080668;28;20051;-61
2021/04/04 04:35:29;;;;;;;31.52;10.70;;;1.70;64.30;;;;;;5082089;28;20036;-63
2021/04/04 04:37:57;;;;;;;33.78;10.65;;;1.70;64.30;;;;;;5096616;28;20552;-63
2021/04/04 04:40:26;;;;;;;26.90;10.00;;;1.70;64.30;;;;;;5084346;28;20047;-62
2021/04/04 04:42:55;;;;;;;26.30;9.52;;;1.70;64.40;;;;;;5082295;28;20024;-63
2021/04/04 04:45:29;;;;;;;24.27;8.48;;;1.70;64.40;;;;;;5083764;28;20531;-63
2021/04/04 04:48:00;;;;;;;17.88;7.72;;;1.70;64.60;;;;;;5084571;28;20081;-62
2021/04/04 04:50:31;;;;;;;16.70;5.90;;;1.70;64.40;;;;;;5081198;28;20060;-64
2021/04/04 04:53:02;;;;;;;15.95;6.07;;;1.70;64.40;;;;;;5099966;28;20123;-64
2021/04/04 04:55:32;;;;;;;11.10;5.50;;;1.70;64.40;;;;;;5085091;28;20040;-62
2021/04/04 04:58:05;;;;;;;11.45;4.75;;;1.60;64.20;;;;;;5079642;28;20043;-63
2021/04/04 05:00:32;;;;;;;9.18;5.13;;;1.60;64.20;;;;;;5075687;28;20036;-63
2021/04/04 05:02:57;;;;;;;10.68;5.00;;;1.60;64.20;;;;;;5082485;28;20443;-65
2021/04/04 05:05:27;;;;;;;17.98;7.57;;;1.60;64.30;;;;;;5084279;28;20032;-66
2021/04/04 05:07:57;;;;;;;17.13;7.22;;;1.60;64.40;;;;;;5083146;28;20028;-63
2021/04/04 05:10:31;;;;;;;14.15;5.85;;;1.60;64.20;;;;;;5077008;28;20040;-63
2021/04/04 05:13:05;;;;;;;11.30;5.53;;;1.50;64.70;;;;;;5078740;28;20420;-64
2021/04/04 05:15:33;;;;;;;8.57;4.18;;;1.50;65.00;;;;;;5079954;28;20029;-63
2021/04/04 05:18:01;;;;;;;8.40;4.05;;;1.40;64.70;;;;;;5083488;28;20055;-64
2021/04/04 05:20:29;;;;;;;14.50;7.35;;;1.40;64.90;;;;;;5078021;28;22293;-63
2021/04/04 05:23:02;;;;;;;18.30;9.65;;;1.40;65.30;;;;;;5082112;28;20036;-63
2021/04/04 05:25:30;;;;;;;10.85;6.47;;;1.30;65.40;;;;;;5083555;28;20062;-62
2021/04/04 05:27:57;;;;;;;9.05;4.50;;;1.30;65.50;;;;;;5082493;28;20512;-63
2021/04/04 05:30:27;;;;;;;8.30;5.57;;;1.30;65.60;;;;;;5084319;28;20036;-63
2021/04/04 05:32:55;;;;;;;8.63;4.57;;;1.40;65.80;;;;;;5085527;28;20032;-63
2021/04/04 05:35:24;;;;;;;7.95;4.35;;;1.40;65.80;;;;;;5083241;28;20036;-63
2021/04/04 05:37:55;;;;;;;6.97;4.72;;;1.40;65.80;;;;;;5085199;28;20036;-63
2021/04/04 05:40:28;;;;;;;8.40;4.80;;;1.40;65.90;;;;;;5083029;28;20028;-63
2021/04/04 05:43:01;;;;;;;8.77;4.82;;;1.40;65.80;;;;;;5083765;28;20040;-63
2021/04/04 05:45:41;;;;;;;6.18;4.60;;;1.50;65.90;;;;;;5079858;28;20036;-62
2021/04/04 05:48:23;;;;;;;10.32;4.82;;;1.60;66.10;;;;;;5075397;28;20036;-63
2021/04/04 05:51:04;;;;;;;6.88;4.30;;;1.60;66.10;;;;;;5080134;28;20043;-62
2021/04/04 05:53:44;;;;;;;10.35;4.47;;;1.70;65.90;;;;;;5078300;28;20075;-62
2021/04/04 05:56:33;;;;;;;5.15;3.97;;;1.70;65.90;;;;;;5077265;28;20044;-63
2021/04/04 05:59:10;;;;;;;11.05;5.00;;;1.70;65.70;;;;;;5070082;28;20054;-62
2021/04/04 06:01:47;;;;;;;9.20;4.03;;;1.80;65.90;;;;;;5068433;28;20036;-63
2021/04/04 06:04:49;;;;;;;5.35;3.75;;;1.80;65.80;;;;;;5075392;28;20036;-63
2021/04/04 06:07:35;;;;;;;7.38;3.95;;;1.80;65.90;;;;;;5071047;28;21000;-62
2021/04/04 06:10:30;;;;;;;9.15;4.50;;;1.90;66.10;;;;;;5076896;28;20040;-63
2021/04/04 06:13:24;;;;;;;7.25;4.32;;;1.90;65.60;;;;;;5017948;28;20041;-63
2021/04/04 06:16:17;;;;;;;7.22;4.35;;;2.00;66.30;;;;;;5058108;28;20040;-65
2021/04/04 06:19:16;;;;;;;9.05;5.18;;;2.00;66.20;;;;;;5058639;28;20074;-63
2021/04/04 06:22:04;;;;;;;11.15;5.63;;;2.10;66.60;;;;;;5063681;28;20469;-65
2021/04/04 06:24:58;;;;;;;7.10;4.40;;;2.10;66.10;;;;;;5063198;28;20475;-65
2021/04/04 06:27:41;;;;;;;8.25;3.95;;;2.20;66.20;;;;;;5059090;28;20056;-65
2021/04/04 06:30:49;;;;;;;9.63;4.32;;;2.30;66.40;;;;;;5066447;28;20048;-65
2021/04/04 06:33:23;;;;;;;9.10;4.47;;;2.30;66.70;;;;;;5062446;28;20029;-64
2021/04/04 06:36:11;;;;;;;7.75;4.65;;;2.40;66.20;;;;;;5059863;28;20449;-62
2021/04/04 06:39:04;;;;;;;9.35;4.65;;;2.50;66.20;;;;;;5060457;28;20039;-62
2021/04/04 06:41:45;;;;;;;10.23;4.88;;;2.50;66.10;;;;;;5060558;28;20066;-63
2021/04/04 06:44:33;;;;;;;8.93;4.65;;;2.70;66.60;;;;;;5061405;28;20378;-62
2021/04/04 06:47:05;;;;;;;9.82;5.00;;;2.70;66.30;;;;;;5061322;28;20028;-63
2021/04/04 06:49:51;;;;;;;8.93;4.85;;;2.80;66.20;;;;;;5062730;28;20029;-61
2021/04/04 06:52:44;;;;;;;8.85;4.88;;;2.90;66.30;;;;;;5060290;28;20029;-63
2021/04/04 06:55:41;;;;;;;6.47;4.40;;;2.90;66.60;;;;;;5054878;28;20044;-62
2021/04/04 06:58:25;;;;;;;9.68;4.53;;;3.00;66.30;;;;;;5060933;28;20040;-62
2021/04/04 07:01:05;;;;;;;7.70;4.68;;;3.20;66.20;;;;;;5065497;28;20032;-62
2021/04/04 07:03:43;;;;;;;9.50;4.90;;;3.30;66.10;;;;;;5063132;28;20037;-62
2021/04/04 07:06:27;;;;;;;9.80;4.68;;;3.40;66.00;;;;;;5064247;28;20041;-62
2021/04/04 07:09:42;;;;;;;13.05;5.10;;;3.50;66.50;;;;;;5064388;28;20408;-62
2021/04/04 07:12:58;;;;;;;8.57;4.40;;;3.60;66.60;;;;;;5066914;28;20036;-62
2021/04/04 07:16:06;;;;;;;9.80;4.45;;;3.70;66.10;;;;;;5067526;28;20034;-62
2021/04/04 07:18:37;;;;;;;9.35;4.25;;;3.90;66.00;;;;;;5064747;28;20036;-62
2021/04/04 07:21:33;;;;;;;8.60;4.05;;;4.00;65.30;;;;;;5064395;28;20078;-62
2021/04/04 07:24:26;;;;;;;8.63;4.10;;;4.10;65.30;;;;;;5068317;28;20044;-62
2021/04/04 07:27:19;;;;;;;10.57;4.15;;;4.20;65.10;;;;;;5079238;28;20040;-62
2021/04/04 07:30:05;;;;;;;6.75;4.00;;;4.30;64.90;;;;;;5083890;28;20032;-63
2021/04/04 07:32:51;;;;;;;9.25;3.92;;;4.40;64.90;;;;;;5079002;28;20040;-62
2021/04/04 07:35:23;;;;;;;7.50;3.97;;;4.50;65.30;;;;;;5083031;28;20036;-62
2021/04/04 07:38:08;;;;;;;11.73;4.32;;;4.60;64.20;;;;;;5085606;28;20462;-63
2021/04/04 07:40:45;;;;;;;9.73;4.13;;;4.60;64.10;;;;;;5086358;28;20101;-62
2021/04/04 07:43:21;;;;;;;7.20;3.92;;;4.70;64.20;;;;;;5086546;28;20036;-62
2021/04/04 07:46:02;;;;;;;6.88;4.38;;;4.90;64.00;;;;;;5086371;28;20115;-62
2021/04/04 07:48:49;;;;;;;14.57;4.22;;;4.90;64.20;;;;;;5100110;28;20512;-60
2021/04/04 07:51:31;;;;;;;7.70;4.40;;;5.10;64.00;;;;;;5079591;28;20031;-62
2021/04/04 07:54:22;;;;;;;7.10;3.75;;;5.20;63.70;;;;;;5082210;28;20066;-62
2021/04/04 07:56:57;;;;;;;10.10;4.00;;;5.30;63.50;;;;;;5085155;28;20504;-62
2021/04/04 07:59:38;;;;;;;7.45;3.70;;;5.40;63.20;;;;;;5083988;28;20032;-62
2021/04/04 08:02:15;;;;;;;7.85;4.13;;;5.50;63.10;;;;;;5085833;28;20055;-62
2021/04/04 08:05:01;;;;;;;8.27;4.40;;;5.60;62.80;;;;;;5082936;28;20043;-62
2021/04/04 08:07:45;;;;;;;7.75;3.30;;;5.70;62.70;;;;;;5081432;28;20074;-62
2021/04/04 08:10:30;;;;;;;10.48;3.72;;;5.80;62.30;;;;;;5077340;28;20025;-62
2021/04/04 08:13:13;;;;;;;6.45;3.30;;;6.00;61.80;;;;;;5079925;28;20527;-62
2021/04/04 08:16:13;;;;;;;11.93;3.95;;;6.10;61.30;;;;;;5081585;28;20043;-61
2021/04/04 08:18:41;;;;;;;7.65;3.58;;;6.20;61.30;;;;;;5076349;28;20041;-62
2021/04/04 08:21:26;;;;;;;4.80;3.25;;;6.40;61.40;;;;;;5085306;28;20032;-62
2021/04/04 08:23:57;;;;;;;6.85;3.10;;;6.50;60.80;;;;;;5080253;28;20032;-63
2021/04/04 08:26:32;;;;;;;8.27;3.72;;;6.60;60.70;;;;;;5085210;28;20056;-62
2021/04/04 08:29:00;;;;;;;;;;;6.70;60.40;;;;;;5085003;28;20451;-62
2021/04/04 08:31:46;;;;;;;5.45;3.08;;;6.90;60.60;;;;;;5084922;28;19916;-62
2021/04/04 08:34:21;;;;;;;9.40;3.47;;;7.00;59.90;;;;;;5082001;28;20351;-62
2021/04/04 08:36:52;;;;;;;7.82;3.40;;;7.10;59.70;;;;;;5083412;28;20024;-62
2021/04/04 08:39:24;;;;;;;8.38;3.72;;;7.20;59.40;;;;;;5083750;28;20441;-62
2021/04/04 08:41:50;;;;;;;13.90;4.07;;;7.30;59.40;;;;;;5085251;28;20591;-63
2021/04/04 08:44:29;;;;;;;7.18;3.78;;;7.40;59.40;;;;;;5082441;28;20268;-62
2021/04/04 08:47:10;;;;;;;12.05;3.60;;;7.50;59.10;;;;;;5081267;28;20059;-61
2021/04/04 08:49:41;;;;;;;9.15;3.83;;;7.60;58.90;;;;;;5080539;28;20082;-62
2021/04/04 08:52:17;;;;;;;7.82;3.70;;;7.70;58.60;;;;;;5085218;28;20032;-62
2021/04/04 08:54:52;;;;;;;5.22;3.30;;;7.70;58.20;;;;;;5078660;28;20095;-62
2021/04/04 08:57:36;;;;;;;5.65;2.88;;;7.80;58.10;;;;;;5082370;28;20571;-62
2021/04/04 09:00:06;;;;;;;5.68;3.25;;;7.90;58.70;;;;;;5079721;28;20488;-62
2021/04/04 09:02:37;;;;;;;7.30;3.42;;;8.00;58.00;;;;;;5080969;28;20036;-63
2021/04/04 09:05:08;;;;;;;10.68;3.92;;;8.00;58.00;;;;;;5082971;28;20032;-62
2021/04/04 09:07:41;;;;;;;6.32;3.42;;;8.10;57.50;;;;;;5080055;28;20035;-63
2021/04/04 09:10:10;;;;;;;9.57;3.72;;;8.20;57.50;;;;;;5081787;28;20040;-62
2021/04/04 09:12:40;;;;;;;5.50;3.30;;;8.20;57.50;;;;;;5077409;28;20044;-62
2021/04/04 09:15:12;;;;;;;6.47;3.20;;;8.30;57.00;;;;;;5082119;28;20589;-62
2021/04/04 09:17:49;;;;;;;6.45;3.53;;;8.40;57.10;;;;;;5081470;28;20032;-62
2021/04/04 09:20:31;;;;;;;7.35;3.58;;;8.50;56.60;;;;;;5080961;28;20101;-62
2021/04/04 09:23:00;;;;;;;8.23;2.88;;;8.60;56.70;;;;;;5083773;28;20038;-63
2021/04/04 09:25:32;;;;;;;5.22;2.92;;;8.70;56.80;;;;;;5077609;28;20040;-62
2021/04/04 09:28:04;;;;;;;4.35;2.67;;;8.70;56.10;;;;;;5076357;28;20036;-63
2021/04/04 09:30:38;;;;;;;8.10;2.92;;;8.80;55.70;;;;;;5078508;28;20032;-63
2021/04/04 09:33:29;;;;;;;10.95;3.10;;;8.90;55.40;;;;;;5082319;28;20035;-62
2021/04/04 09:36:02;;;;;;;4.88;2.30;;;9.00;54.80;;;;;;5081556;28;20040;-63
2021/04/04 09:38:42;;;;;;;4.65;2.80;;;9.10;55.10;;;;;;5080175;28;20032;-63
2021/04/04 09:41:11;;;;;;;3.92;2.70;;;9.10;54.70;;;;;;5085136;28;20093;-62
2021/04/04 09:43:40;;;;;;;7.45;3.67;;;9.30;54.60;;;;;;5083818;28;20036;-63
2021/04/04 09:46:08;;;;;;;6.22;3.25;;;9.30;53.00;;;;;;5085993;28;20048;-62
2021/04/04 09:48:45;;;;;;;4.55;2.75;;;9.40;54.00;;;;;;5082538;28;20063;-62
2021/04/04 09:51:16;;;;;;;9.10;2.65;;;9.50;53.70;;;;;;5086104;28;20103;-63
2021/04/04 09:53:52;;;;;;;5.00;2.17;;;9.50;53.80;;;;;;5085878;28;20063;-63
2021/04/04 09:56:30;;;;;;;3.47;2.22;;;9.60;53.00;;;;;;5085671;28;20040;-63
2021/04/04 09:58:59;;;;;;;4.28;2.40;;;9.80;53.20;;;;;;5081632;28;20263;-63
2021/04/04 10:01:31;;;;;;;3.85;2.47;;;9.90;53.30;;;;;;5085360;28;20028;-63
2021/04/04 10:04:06;;;;;;;5.55;2.78;;;10.00;53.00;;;;;;5084811;28;20409;-62
2021/04/04 10:06:36;;;;;;;3.72;2.67;;;10.10;52.50;;;;;;5084946;28;20044;-63
2021/04/04 10:09:11;;;;;;;6.45;2.80;;;10.20;51.40;;;;;;5086927;28;20103;-63
2021/04/04 10:11:39;;;;;;;;;;;10.20;51.50;;;;;;5084238;28;20060;-62
2021/04/04 10:14:16;;;;;;;4.95;2.58;;;10.30;51.50;;;;;;5086343;28;19912;-62
2021/04/04 10:16:43;;;;;;;4.72;2.70;;;10.30;48.70;;;;;;5085370;28;20048;-63
2021/04/04 10:19:12;;;;;;;4.72;2.75;;;10.40;50.70;;;;;;5086584;28;20462;-62
2021/04/04 10:21:42;;;;;;;3.85;2.75;;;10.40;50.30;;;;;;5103066;28;20020;-63
2021/04/04 10:24:27;;;;;;;3.78;2.50;;;10.40;50.40;;;;;;5085064;28;20047;-62
2021/04/04 10:27:23;;;;;;;5.57;2.60;;;10.50;49.30;;;;;;5085727;28;20492;-62
2021/04/04 10:30:41;;;;;;;5.53;2.55;;;10.50;49.50;;;;;;5086125;28;20036;-63
2021/04/04 10:33:23;;;;;;;4.20;2.00;;;10.50;50.30;;;;;;5085634;28;20028;-63
2021/04/04 10:35:54;;;;;;;5.22;2.25;;;10.60;50.20;;;;;;5088968;28;20051;-63
2021/04/04 10:38:24;;;;;;;4.50;2.90;;;10.60;50.30;;;;;;5089970;28;20414;-63
2021/04/04 10:40:58;;;;;;;3.55;2.40;;;10.70;49.10;;;;;;5089342;28;20032;-63
2021/04/04 10:43:47;;;;;;;4.28;2.47;;;10.70;49.70;;;;;;5089407;28;20516;-63
2021/04/04 10:46:15;;;;;;;4.72;2.30;;;10.80;48.70;;;;;;5089056;28;20066;-62
2021/04/04 10:48:48;;;;;;;3.90;2.33;;;10.80;49.50;;;;;;5088945;28;20110;-62
2021/04/04 10:51:21;;;;;;;4.47;2.78;;;10.90;49.00;;;;;;5089432;28;20039;-63
2021/04/04 10:53:50;;;;;;;5.70;2.60;;;11.00;49.00;;;;;;5090003;28;20737;-63
2021/04/04 10:56:18;;;;;;;5.43;2.80;;;11.00;48.50;;;;;;5086896;28;20043;-63
2021/04/04 10:58:48;;;;;;;3.38;2.58;;;11.10;48.90;;;;;;5086854;28;20535;-63
2021/04/04 11:01:19;;;;;;;4.22;2.50;;;11.10;48.90;;;;;;5086559;28;20085;-62
2021/04/04 11:03:51;;;;;;;2.92;2.40;;;11.20;48.80;;;;;;5086380;28;20036;-62
2021/04/04 11:06:22;;;;;;;4.40;2.13;;;11.30;46.10;;;;;;5086858;28;20504;-63
2021/04/04 11:08:48;;;;;;;6.82;2.75;;;11.40;45.40;;;;;;5088900;28;20186;-63
2021/04/04 11:11:19;;;;;;;2.95;2.45;;;11.40;46.50;;;;;;5087260;28;20602;-63
2021/04/04 11:13:52;;;;;;;3.33;2.42;;;11.40;47.00;;;;;;5088898;28;20119;-62
2021/04/04 11:16:25;;;;;;;4.78;2.40;;;11.50;47.20;;;;;;5088065;28;20044;-62
2021/04/04 11:18:55;;;;;;;4.25;1.98;;;11.60;47.20;;;;;;5087583;28;20085;-63
2021/04/04 11:21:31;;;;;;;3.70;2.47;;;11.60;47.40;;;;;;5088968;28;20031;-63
2021/04/04 11:23:59;;;;;;;3.85;2.30;;;11.70;46.70;;;;;;5089232;28;20033;-62
2021/04/04 11:26:33;;;;;;;2.22;2.03;;;11.80;46.90;;;;;;5088115;28;20052;-62
2021/04/04 11:29:10;;;;;;;3.20;1.88;;;11.90;46.30;;;;;;5088932;28;20035;-63
2021/04/04 11:31:43;;;;;;;7.20;2.42;;;12.00;46.00;;;;;;5086644;28;20389;-63
2021/04/04 11:34:40;;;;;;;2.42;1.80;;;12.00;45.70;;;;;;5104580;28;20457;-63
2021/04/04 11:37:33;;;;;;;4.43;2.25;;;12.10;44.10;;;;;;5078961;28;20441;-62
2021/04/04 11:40:21;;;;;;;2.75;2.08;;;12.10;44.40;;;;;;5088661;28;20508;-63
2021/04/04 11:42:51;;;;;;;2.33;1.90;;;12.20;43.40;;;;;;5088427;28;20119;-63
2021/04/04 11:45:40;;;;;;;2.63;1.92;;;12.20;44.30;;;;;;5087402;28;20172;-62
2021/04/04 11:48:32;;;;;;;3.17;2.28;;;12.10;44.00;;;;;;5088235;28;20036;-63
2021/04/04 11:51:10;;;;;;;2.22;1.85;;;12.20;44.00;;;;;;5088435;28;20036;-63
2021/04/04 11:53:45;;;;;;;3.05;2.03;;;12.10;44.50;;;;;;5088136;28;20509;-62
2021/04/04 11:56:45;;;;;;;3.67;2.10;;;12.20;44.80;;;;;;5087939;28;20066;-63
2021/04/04 11:59:14;;;;;;;3.65;2.10;;;12.20;44.20;;;;;;5080314;28;20028;-63
2021/04/04 12:01:43;;;;;;;2.70;1.92;;;12.20;45.20;;;;;;5085627;28;20166;-63
2021/04/04 12:04:31;;;;;;;3.40;2.25;;;12.30;44.30;;;;;;5082047;28;20040;-63
2021/04/04 12:07:16;;;;;;;2.65;2.28;;;12.30;42.50;;;;;;5084645;28;20036;-63
2021/04/04 12:09:44;;;;;;;2.88;1.65;;;12.30;42.50;;;;;;5087809;28;20024;-62
2021/04/04 12:12:13;;;;;;;3.88;2.10;;;12.30;43.70;;;;;;5083248;28;20036;-63
2021/04/04 12:14:59;;;;;;;3.17;2.10;;;12.20;43.10;;;;;;5084401;28;20103;-63
2021/04/04 12:17:29;;;;;;;3.45;1.80;;;12.20;41.60;;;;;;5086654;28;20036;-63
2021/04/04 12:19:59;;;;;;;24.52;2.78;;;12.20;43.10;;;;;;5087894;28;20032;-63
2021/04/04 12:22:42;;;;;;;4.15;2.50;;;12.20;42.90;;;;;;5086192;28;20028;-63
2021/04/04 12:25:22;;;;;;;3.25;1.73;;;12.20;42.40;;;;;;5085805;28;20089;-63
2021/04/04 12:27:54;;;;;;;3.28;2.25;;;12.20;43.30;;;;;;5087016;28;20036;-63
2021/04/04 12:30:44;;;;;;;2.53;2.00;;;12.20;42.30;;;;;;5086678;28;20504;-64
2021/04/04 12:33:20;;;;;;;2.55;2.03;;;12.20;42.30;;;;;;5086831;28;20525;-62
2021/04/04 12:35:53;;;;;;;4.30;1.85;;;12.20;42.50;;;;;;5086620;28;20583;-63
2021/04/04 12:38:28;;;;;;;2.05;1.73;;;12.20;43.20;;;;;;5086928;28;20118;-62
2021/04/04 12:40:58;;;;;;;2.35;1.70;;;12.20;43.20;;;;;;5085037;28;20181;-63
2021/04/04 12:43:29;;;;;;;2.78;1.83;;;12.30;43.70;;;;;;5085170;28;20032;-63
2021/04/04 12:45:57;;;;;;;2.33;1.83;;;12.30;43.50;;;;;;5085256;28;20040;-63
2021/04/04 12:48:25;;;;;;;3.58;1.85;;;12.40;43.70;;;;;;5085125;28;20056;-63
2021/04/04 12:50:55;;;;;;;2.60;2.00;;;12.50;43.10;;;;;;5086160;28;20036;-62
2021/04/04 12:53:28;;;;;;;2.97;1.73;;;12.50;43.30;;;;;;5086152;28;20507;-63
2021/04/04 12:55:57;;;;;;;3.25;2.10;;;12.50;43.10;;;;;;5083862;28;20509;-63
2021/04/04 12:58:30;;;;;;;2.22;1.75;;;12.60;42.10;;;;;;5086956;28;20043;-63
2021/04/04 13:00:56;;;;;;;2.90;2.00;;;12.60;42.10;;;;;;5084256;28;20113;-63
2021/04/04 13:03:22;;;;;;;5.30;2.40;;;12.60;41.20;;;;;;5076198;28;20128;-63
2021/04/04 13:05:54;;;;;;;3.13;1.73;;;12.60;40.50;;;;;;5075423;28;20036;-62
2021/04/04 13:08:20;;;;;;;2.15;1.92;;;12.60;40.70;;;;;;5080184;28;20040;-62
2021/04/04 13:10:59;;;;;;;4.07;1.70;;;12.60;41.80;;;;;;5071417;28;20039;-62
2021/04/04 13:13:34;;;;;;;2.60;1.70;;;12.60;41.90;;;;;;5071182;28;20043;-62
2021/04/04 13:16:12;;;;;;;2.33;2.10;;;12.60;41.70;;;;;;5070330;28;20071;-62
2021/04/04 13:18:41;;;;;;;4.38;1.85;;;12.60;41.80;;;;;;5071606;28;20439;-62
2021/04/04 13:21:26;;;;;;;3.45;2.40;;;12.70;41.80;;;;;;5069070;28;20472;-63
2021/04/04 13:24:08;;;;;;;3.33;2.00;;;12.70;41.30;;;;;;5072493;28;20028;-63
2021/04/04 13:26:40;;;;;;;5.35;1.95;;;12.80;41.70;;;;;;5079445;28;20044;-63
2021/04/04 13:29:12;;;;;;;3.53;1.92;;;12.80;41.90;;;;;;5083334;28;20085;-63
2021/04/04 13:31:49;;;;;;;4.70;1.80;;;12.90;40.90;;;;;;5086624;28;20032;-63
2021/04/04 13:34:22;;;;;;;2.17;1.70;;;12.90;40.20;;;;;;5086628;28;20028;-63
2021/04/04 13:36:56;;;;;;;2.95;1.70;;;12.90;40.10;;;;;;5086129;28;20031;-62